createdAt,value
2022-08-07T00:00:25.422Z,0.82
2022-08-07T00:02:53.687Z,0.98
2022-08-07T00:05:21.014Z,0.70
2022-08-07T00:07:59.639Z,0.80
2022-08-07T00:10:30.535Z,0.90
2022-08-07T00:13:00.195Z,1.10
2022-08-07T00:15:38.442Z,0.95
2022-08-07T00:18:19.810Z,1.00
2022-08-07T00:20:51.380Z,0.90
2022-08-07T00:23:18.587Z,1.23
2022-08-07T00:25:58.974Z,1.10
2022-08-07T00:28:31.791Z,0.75
2022-08-07T00:31:05.778Z,0.98
2022-08-07T00:33:32.992Z,0.80
2022-08-07T00:36:00.384Z,0.82
2022-08-07T00:38:31.225Z,1.00
2022-08-07T00:40:59.125Z,0.80
2022-08-07T00:44:00.547Z,0.90
2022-08-07T00:46:12.943Z,0.90
2022-08-07T00:48:41.966Z,0.88
2022-08-07T00:51:09.215Z,0.88
2022-08-07T00:53:44.164Z,0.90
2022-08-07T00:56:17.330Z,0.88
2022-08-07T00:58:47.430Z,1.00
2022-08-07T01:01:17.120Z,0.98
2022-08-07T01:03:57.020Z,0.95
2022-08-07T01:06:27.615Z,0.82
2022-08-07T01:08:56.357Z,0.82
2022-08-07T01:12:11.066Z,0.98
2022-08-07T01:14:12.129Z,0.80
2022-08-07T01:16:43.243Z,0.80
2022-08-07T01:19:19.146Z,0.80
2022-08-07T01:21:47.792Z,1.00
2022-08-07T01:24:14.607Z,0.90
2022-08-07T01:26:51.943Z,1.08
2022-08-07T01:29:20.224Z,0.88
2022-08-07T01:31:49.249Z,0.80
2022-08-07T01:34:18.589Z,0.80
2022-08-07T01:36:52.543Z,1.10
2022-08-07T01:39:40.804Z,0.82
2022-08-07T01:42:38.167Z,1.00
2022-08-07T01:45:01.104Z,1.33
2022-08-07T01:48:29.365Z,1.20
2022-08-07T01:50:14.628Z,0.60
2022-08-07T01:52:49.723Z,1.15
2022-08-07T01:55:26.472Z,0.80
2022-08-07T01:58:05.833Z,1.02
2022-08-07T02:00:33.661Z,1.00
2022-08-07T02:03:21.680Z,0.80
2022-08-07T02:06:01.116Z,0.93
2022-08-07T02:08:28.246Z,0.80
2022-08-07T02:10:57.933Z,1.17
2022-08-07T02:13:56.626Z,0.93
2022-08-07T02:16:13.485Z,0.90
2022-08-07T02:18:46.922Z,0.85
2022-08-07T02:21:16.188Z,0.93
2022-08-07T02:23:43.184Z,0.80
2022-08-07T02:26:33.002Z,1.20
2022-08-07T02:28:58.222Z,1.10
2022-08-07T02:31:28.838Z,1.00
2022-08-07T02:34:03.113Z,0.95
2022-08-07T02:36:32.957Z,0.90
2022-08-07T02:39:01.740Z,1.15
2022-08-07T02:41:37.152Z,0.93
2022-08-07T02:44:04.973Z,0.90
2022-08-07T02:46:31.749Z,0.93
2022-08-07T02:48:58.364Z,0.80
2022-08-07T02:51:42.701Z,0.90
2022-08-07T02:54:13.180Z,1.00
2022-08-07T02:56:40.908Z,0.90
2022-08-07T02:59:11.660Z,0.95
2022-08-07T03:01:39.988Z,0.73
2022-08-07T03:04:12.352Z,0.93
2022-08-07T03:06:41.358Z,0.85
2022-08-07T03:09:11.423Z,1.10
2022-08-07T03:11:38.956Z,1.70
2022-08-07T03:14:18.140Z,0.82
2022-08-07T03:16:45.133Z,0.80
2022-08-07T03:19:11.744Z,1.10
2022-08-07T03:21:40.343Z,0.82
2022-08-07T03:24:19.246Z,0.77
2022-08-07T03:26:58.965Z,0.88
2022-08-07T03:29:28.735Z,1.00
2022-08-07T03:31:55.842Z,1.10
2022-08-07T03:34:27.347Z,0.98
2022-08-07T03:36:54.503Z,1.38
2022-08-07T03:40:00.163Z,1.02
2022-08-07T03:42:07.893Z,0.85
2022-08-07T03:44:36.359Z,1.20
2022-08-07T03:47:13.911Z,1.05
2022-08-07T03:49:47.811Z,1.00
2022-08-07T03:52:26.027Z,0.90
2022-08-07T03:55:06.820Z,0.98
2022-08-07T03:58:34.144Z,1.00
2022-08-07T04:00:21.312Z,1.02
2022-08-07T04:02:58.288Z,1.00
2022-08-07T04:05:39.663Z,1.00
2022-08-07T04:08:11.037Z,1.10
2022-08-07T04:10:38.813Z,1.00
2022-08-07T04:13:07.657Z,1.40
2022-08-07T04:15:42.246Z,0.90
2022-08-07T04:18:56.261Z,1.20
2022-08-07T04:20:58.912Z,1.20
2022-08-07T04:23:43.255Z,1.00
2022-08-07T04:26:12.858Z,1.15
2022-08-07T04:28:43.942Z,1.15
2022-08-07T04:31:19.972Z,1.23
2022-08-07T04:33:46.968Z,1.00
2022-08-07T04:36:26.046Z,1.25
2022-08-07T04:38:53.065Z,1.05
2022-08-07T04:41:19.642Z,1.33
2022-08-07T04:44:12.714Z,1.10
2022-08-07T04:47:04.455Z,1.10
2022-08-07T04:49:57.852Z,1.00
2022-08-07T04:52:33.960Z,1.05
2022-08-07T04:55:15.397Z,0.90
2022-08-07T04:58:14.999Z,1.08
2022-08-07T05:01:18.510Z,1.15
2022-08-07T05:04:06.315Z,1.20
2022-08-07T05:06:59.100Z,0.85
2022-08-07T05:09:45.844Z,1.17
2022-08-07T05:12:26.487Z,0.95
2022-08-07T05:15:03.324Z,1.15
2022-08-07T05:17:52.933Z,1.20
2022-08-07T05:20:24.753Z,1.40
2022-08-07T05:22:55.896Z,1.00
2022-08-07T05:25:25.697Z,1.17
2022-08-07T05:28:20.738Z,1.20
2022-08-07T05:30:49.535Z,1.13
2022-08-07T05:33:18.206Z,1.20
2022-08-07T05:35:47.883Z,1.17
2022-08-07T05:38:59.924Z,1.10
2022-08-07T05:41:02.089Z,1.20
2022-08-07T05:43:49.705Z,1.50
2022-08-07T05:46:26.614Z,1.70
2022-08-07T05:48:58.108Z,1.40
2022-08-07T05:51:26.212Z,1.70
2022-08-07T05:54:11.953Z,1.88
2022-08-07T05:56:45.237Z,1.92
2022-08-07T05:59:17.472Z,1.75
2022-08-07T06:01:44.570Z,1.80
2022-08-07T06:04:14.773Z,1.92
2022-08-07T06:06:46.303Z,1.65
2022-08-07T06:09:16.228Z,1.95
2022-08-07T06:11:43.190Z,2.10
2022-08-07T06:14:12.620Z,2.50
2022-08-07T06:16:50.262Z,2.17
2022-08-07T06:19:18.259Z,2.30
2022-08-07T06:22:14.806Z,2.17
2022-08-07T06:24:58.113Z,1.90
2022-08-07T06:27:44.342Z,2.00
2022-08-07T06:30:32.080Z,1.98
2022-08-07T06:33:01.603Z,2.15
2022-08-07T06:35:38.880Z,2.03
2022-08-07T06:38:20.006Z,2.17
2022-08-07T06:40:49.919Z,2.38
2022-08-07T06:43:21.504Z,2.05
2022-08-07T06:45:49.172Z,2.17
2022-08-07T06:48:15.802Z,2.00
2022-08-07T06:50:51.569Z,2.10
2022-08-07T06:54:12.226Z,2.20
2022-08-07T06:56:07.533Z,2.00
2022-08-07T07:00:15.000Z,2.08
2022-08-07T07:01:33.177Z,1.90
2022-08-07T07:04:32.343Z,2.45
2022-08-07T07:07:00.983Z,2.00
2022-08-07T07:09:31.402Z,1.83
2022-08-07T07:12:08.747Z,2.30
2022-08-07T07:14:55.111Z,2.10
2022-08-07T07:17:50.512Z,2.00
2022-08-07T07:20:19.784Z,1.90
2022-08-07T07:24:10.430Z,2.08
2022-08-07T07:26:35.417Z,2.22
2022-08-07T07:28:29.775Z,2.00
2022-08-07T07:31:39.882Z,1.90
2022-08-07T07:34:13.773Z,1.73
2022-08-07T07:36:42.184Z,1.75
2022-08-07T07:39:14.885Z,2.05
2022-08-07T07:41:50.482Z,1.45
2022-08-07T07:44:28.594Z,1.70
2022-08-07T07:47:04.267Z,1.85
2022-08-07T07:50:36.641Z,1.60
2022-08-07T07:52:29.399Z,1.95
2022-08-07T07:54:56.870Z,1.55
2022-08-07T07:57:51.946Z,1.60
2022-08-07T08:00:21.238Z,1.40
2022-08-07T08:03:05.278Z,1.30
2022-08-07T08:05:54.428Z,1.45
2022-08-07T08:08:35.291Z,0.98
2022-08-07T08:11:09.340Z,1.10
2022-08-07T08:13:53.782Z,1.17
2022-08-07T08:16:25.001Z,1.10
2022-08-07T08:18:52.348Z,1.10
2022-08-07T08:21:55.654Z,1.27
2022-08-07T08:24:45.690Z,0.90
2022-08-07T08:27:16.696Z,0.70
2022-08-07T08:29:54.447Z,0.80
2022-08-07T08:32:25.617Z,0.80
2022-08-07T08:35:06.318Z,0.90
2022-08-07T08:38:01.579Z,0.65
2022-08-07T08:40:33.065Z,0.80
2022-08-07T08:43:41.874Z,1.00
2022-08-07T08:46:34.272Z,0.80
2022-08-07T08:49:17.913Z,1.17
2022-08-07T08:52:16.516Z,0.60
2022-08-07T08:54:55.227Z,0.80
2022-08-07T08:57:47.010Z,0.90
2022-08-07T09:00:14.160Z,1.50
2022-08-07T09:02:42.099Z,0.75
2022-08-07T09:05:36.764Z,0.60
2022-08-07T09:08:28.416Z,0.80
2022-08-07T09:11:25.020Z,0.50
2022-08-07T09:14:29.556Z,0.50
2022-08-07T09:17:13.563Z,0.60
2022-08-07T09:19:51.504Z,0.50
2022-08-07T09:24:31.901Z,0.80
2022-08-07T09:26:21.814Z,0.57
2022-08-07T09:30:00.841Z,0.47
2022-08-07T09:31:48.420Z,0.50
2022-08-07T09:34:31.897Z,0.70
2022-08-07T09:37:11.428Z,0.60
2022-08-07T09:39:54.900Z,0.50
2022-08-07T09:42:50.457Z,0.50
2022-08-07T09:47:50.719Z,0.60
2022-08-07T09:50:01.495Z,0.45
2022-08-07T09:52:16.072Z,0.50
2022-08-07T09:55:06.157Z,0.50
2022-08-07T09:58:12.279Z,0.47
2022-08-07T10:01:02.345Z,0.50
2022-08-07T10:04:05.495Z,0.50
2022-08-07T10:07:24.575Z,0.40
2022-08-07T10:11:16.472Z,0.95
2022-08-07T10:14:11.501Z,0.40
2022-08-07T10:16:52.679Z,0.63
2022-08-07T10:19:31.634Z,0.50
2022-08-07T10:22:24.841Z,0.57
2022-08-07T10:25:05.033Z,0.50
2022-08-07T10:28:07.362Z,0.38
2022-08-07T10:30:44.220Z,0.43
2022-08-07T10:34:05.805Z,0.30
2022-08-07T10:36:45.575Z,0.68
2022-08-07T10:39:57.478Z,0.40
2022-08-07T10:42:39.292Z,0.60
2022-08-07T10:45:16.625Z,0.52
2022-08-07T10:48:03.844Z,0.50
2022-08-07T10:50:49.929Z,0.50
2022-08-07T10:53:28.121Z,0.35
2022-08-07T10:56:39.572Z,0.50
2022-08-07T10:59:21.608Z,0.88
2022-08-07T11:02:04.765Z,0.43
2022-08-07T11:04:47.810Z,0.50
2022-08-07T11:07:59.453Z,0.40
2022-08-07T11:10:40.863Z,0.30
2022-08-07T11:14:41.779Z,0.50
2022-08-07T11:16:02.865Z,0.40
2022-08-07T11:18:50.866Z,0.60
2022-08-07T11:21:44.828Z,0.50
2022-08-07T11:24:23.810Z,0.40
2022-08-07T11:27:01.199Z,0.40
2022-08-07T11:30:09.991Z,0.65
2022-08-07T11:32:57.100Z,0.50
2022-08-07T11:35:32.960Z,0.60
2022-08-07T11:38:21.455Z,0.50
2022-08-07T11:40:59.361Z,0.50
2022-08-07T11:44:11.363Z,0.70
2022-08-07T11:47:19.613Z,0.55
2022-08-07T11:50:32.579Z,0.35
2022-08-07T11:56:11.909Z,0.60
2022-08-07T11:58:36.301Z,0.50
2022-08-07T12:01:58.734Z,0.50
2022-08-07T12:04:30.857Z,0.60
2022-08-07T12:07:09.077Z,0.50
2022-08-07T12:10:14.999Z,0.90
2022-08-07T12:12:53.793Z,0.40
2022-08-07T12:15:46.688Z,0.38
2022-08-07T12:18:29.760Z,0.40
2022-08-07T12:21:55.764Z,0.55
2022-08-07T12:24:37.599Z,0.40
2022-08-07T12:27:15.912Z,0.40
2022-08-07T12:29:54.290Z,0.50
2022-08-07T12:32:28.290Z,0.47
2022-08-07T12:34:55.979Z,0.50
2022-08-07T12:37:28.124Z,0.60
2022-08-07T12:40:29.796Z,0.45
2022-08-07T12:42:59.513Z,0.30
2022-08-07T12:45:30.393Z,0.50
2022-08-07T12:48:02.638Z,0.50
2022-08-07T12:50:48.889Z,0.57
2022-08-07T12:54:03.225Z,0.52
2022-08-07T12:56:31.480Z,0.40
2022-08-07T12:58:59.736Z,0.50
2022-08-07T13:01:27.918Z,0.50
2022-08-07T13:04:18.975Z,0.30
2022-08-07T13:08:12.246Z,0.50
2022-08-07T13:10:28.423Z,0.65
2022-08-07T13:13:47.116Z,0.50
2022-08-07T13:16:24.148Z,0.50
2022-08-07T13:19:11.431Z,0.68
2022-08-07T13:22:06.152Z,0.50
2022-08-07T13:24:52.496Z,0.60
2022-08-07T13:27:33.242Z,0.50
2022-08-07T13:30:19.758Z,0.50
2022-08-07T13:34:34.652Z,0.38
2022-08-07T13:39:02.021Z,0.40
2022-08-07T13:41:47.555Z,0.60
2022-08-07T13:44:27.608Z,0.40
2022-08-07T13:47:01.860Z,0.70
2022-08-07T13:50:34.857Z,0.50
2022-08-07T13:52:33.573Z,0.50
2022-08-07T13:55:25.546Z,0.40
2022-08-07T13:58:20.600Z,0.40
2022-08-07T14:03:28.925Z,0.50
2022-08-07T14:06:10.976Z,0.60
2022-08-07T14:08:45.452Z,0.60
2022-08-07T14:11:53.906Z,0.80
2022-08-07T14:14:49.107Z,0.45
2022-08-07T14:18:13.114Z,0.40
2022-08-07T14:20:43.338Z,0.40
2022-08-07T14:23:59.019Z,0.70
2022-08-07T14:26:28.273Z,0.30
2022-08-07T14:29:04.498Z,0.45
2022-08-07T14:31:42.948Z,0.55
2022-08-07T14:34:27.231Z,0.45
2022-08-07T14:36:56.615Z,0.73
2022-08-07T14:40:17.437Z,0.50
2022-08-07T14:42:19.534Z,0.47
2022-08-07T14:45:47.057Z,0.55
2022-08-07T14:48:27.242Z,0.50
2022-08-07T14:52:10.629Z,0.70
2022-08-07T14:54:41.912Z,0.82
2022-08-07T14:57:19.603Z,0.90
2022-08-07T15:00:03.508Z,0.70
2022-08-07T15:02:34.551Z,0.55
2022-08-07T15:05:02.157Z,0.85
2022-08-07T15:07:50.861Z,0.57
2022-08-07T15:10:26.138Z,0.50
2022-08-07T15:13:01.257Z,0.43
2022-08-07T15:15:42.140Z,0.60
2022-08-07T15:18:28.468Z,0.57
2022-08-07T15:21:03.987Z,0.60
2022-08-07T15:26:32.403Z,0.80
2022-08-07T15:30:06.467Z,0.65
2022-08-07T15:32:01.697Z,1.05
2022-08-07T15:34:50.555Z,0.70
2022-08-07T15:38:04.523Z,0.55
2022-08-07T15:40:33.738Z,0.70
2022-08-07T15:45:58.161Z,0.50
2022-08-07T15:48:34.517Z,0.93
2022-08-07T15:51:10.062Z,0.90
2022-08-07T15:53:52.400Z,0.70
2022-08-07T15:56:24.874Z,0.90
2022-08-07T15:58:57.307Z,0.60
2022-08-07T16:04:14.699Z,0.65
2022-08-07T16:06:59.506Z,0.60
2022-08-07T16:09:41.008Z,0.60
2022-08-07T16:15:00.903Z,0.60
2022-08-07T16:18:01.680Z,1.25
2022-08-07T16:23:52.998Z,0.52
2022-08-07T16:26:10.745Z,0.60
2022-08-07T16:30:08.756Z,0.60
2022-08-07T16:31:51.108Z,0.70
2022-08-07T16:34:26.753Z,0.50
2022-08-07T16:38:06.926Z,0.60
2022-08-07T16:40:34.374Z,0.60
2022-08-07T16:43:24.235Z,0.60
2022-08-07T16:47:06.438Z,0.50
2022-08-07T16:50:27.289Z,0.60
2022-08-07T16:52:51.030Z,0.70
2022-08-07T16:55:08.393Z,0.60
2022-08-07T16:58:02.804Z,1.23
2022-08-07T17:00:41.306Z,0.60
2022-08-07T17:03:18.031Z,0.70
2022-08-07T17:06:39.841Z,0.70
2022-08-07T17:09:15.853Z,0.75
2022-08-07T17:12:44.729Z,0.52
2022-08-07T17:15:04.925Z,0.47
2022-08-07T17:17:55.338Z,0.70
2022-08-07T17:23:22.997Z,0.60
2022-08-07T17:26:23.558Z,0.70
2022-08-07T17:29:07.630Z,0.80
2022-08-07T17:31:43.975Z,0.47
2022-08-07T17:34:34.490Z,0.60
2022-08-07T17:38:06.802Z,0.50
2022-08-07T17:40:56.935Z,0.75
2022-08-07T17:44:02.917Z,0.90
2022-08-07T17:47:01.211Z,0.88
2022-08-07T17:49:44.892Z,0.70
2022-08-07T17:52:30.722Z,0.82
2022-08-07T17:55:08.641Z,0.60
2022-08-07T17:57:59.207Z,0.40
2022-08-07T18:00:34.213Z,0.55
2022-08-07T18:04:04.604Z,0.73
2022-08-07T18:06:37.237Z,0.70
2022-08-07T18:09:05.701Z,0.50
2022-08-07T18:12:16.451Z,0.70
2022-08-07T18:14:24.215Z,0.63
2022-08-07T18:17:17.101Z,0.47
2022-08-07T18:21:09.697Z,0.50
2022-08-07T18:23:42.727Z,0.90
2022-08-07T18:26:05.393Z,0.47
2022-08-07T18:30:08.295Z,0.50
2022-08-07T18:32:16.949Z,0.40
2022-08-07T18:35:02.413Z,0.60
2022-08-07T18:38:56.987Z,0.50
2022-08-07T18:40:53.571Z,0.45
2022-08-07T18:43:57.847Z,0.70
2022-08-07T18:47:44.945Z,0.50
2022-08-07T18:50:40.881Z,0.50
2022-08-07T18:53:36.738Z,0.70
2022-08-07T18:56:31.596Z,0.70
2022-08-07T18:58:58.406Z,0.70
2022-08-07T19:02:18.591Z,0.60
2022-08-07T19:04:38.528Z,0.55
2022-08-07T19:07:20.607Z,0.70
2022-08-07T19:10:18.615Z,0.50
2022-08-07T19:13:11.762Z,0.60
2022-08-07T19:17:01.308Z,0.47
2022-08-07T19:19:39.861Z,0.50
2022-08-07T19:22:44.821Z,0.50
2022-08-07T19:26:24.611Z,0.50
2022-08-07T19:28:30.911Z,0.50
2022-08-07T19:31:41.550Z,0.60
2022-08-07T19:36:14.713Z,0.90
2022-08-07T19:38:55.729Z,0.80
2022-08-07T19:41:39.247Z,0.47
2022-08-07T19:44:21.907Z,0.73
2022-08-07T19:46:55.895Z,0.50
2022-08-07T19:49:57.111Z,0.52
2022-08-07T19:52:18.282Z,0.80
2022-08-07T19:54:56.556Z,0.50
2022-08-07T19:58:00.370Z,0.50
2022-08-07T20:00:29.468Z,0.77
2022-08-07T20:03:35.646Z,0.40
2022-08-07T20:06:04.401Z,0.50
2022-08-07T20:08:34.581Z,0.70
2022-08-07T20:11:10.792Z,0.65
2022-08-07T20:13:55.456Z,0.70
2022-08-07T20:16:35.307Z,0.40
2022-08-07T20:19:10.345Z,0.90
2022-08-07T20:21:42.171Z,0.77
2022-08-07T20:24:18.612Z,0.70
2022-08-07T20:26:50.210Z,0.70
2022-08-07T20:29:47.724Z,0.57
2022-08-07T20:32:11.510Z,0.80
2022-08-07T20:34:52.121Z,0.80
2022-08-07T20:37:23.910Z,0.73
2022-08-07T20:40:03.184Z,0.70
2022-08-07T20:42:31.899Z,1.08
2022-08-07T20:45:01.088Z,0.70
2022-08-07T20:47:29.164Z,0.90
2022-08-07T20:50:15.939Z,0.60
2022-08-07T20:52:51.443Z,0.73
2022-08-07T20:55:24.099Z,1.00
2022-08-07T20:58:03.409Z,0.90
2022-08-07T21:00:44.488Z,0.77
2022-08-07T21:03:16.043Z,0.75
2022-08-07T21:05:56.523Z,0.77
2022-08-07T21:08:37.170Z,1.02
2022-08-07T21:11:10.852Z,1.02
2022-08-07T21:13:57.086Z,0.85
2022-08-07T21:16:29.177Z,1.15
2022-08-07T21:18:56.632Z,0.75
2022-08-07T21:21:27.786Z,0.75
2022-08-07T21:24:07.843Z,0.68
2022-08-07T21:26:51.350Z,0.80
2022-08-07T21:29:30.577Z,1.25
2022-08-07T21:32:43.646Z,1.20
2022-08-07T21:35:11.509Z,1.02
2022-08-07T21:37:59.571Z,0.80
2022-08-07T21:40:47.636Z,0.77
2022-08-07T21:43:47.245Z,0.90
2022-08-07T21:46:42.559Z,0.90
2022-08-07T21:49:15.105Z,0.85
2022-08-07T21:52:11.895Z,0.80
2022-08-07T21:55:13.791Z,0.77
2022-08-07T21:58:01.428Z,0.70
2022-08-07T22:00:29.871Z,1.00
2022-08-07T22:03:31.031Z,0.90
2022-08-07T22:06:30.943Z,1.13
2022-08-07T22:09:06.973Z,1.27
2022-08-07T22:12:05.812Z,1.20
2022-08-07T22:14:23.887Z,1.30
2022-08-07T22:17:04.216Z,1.00
2022-08-07T22:19:46.045Z,1.08
2022-08-07T22:22:21.235Z,1.00
2022-08-07T22:25:15.682Z,1.10
2022-08-07T22:28:29.800Z,1.10
2022-08-07T22:31:45.557Z,1.00
2022-08-07T22:34:06.383Z,1.05
2022-08-07T22:36:48.574Z,1.10
2022-08-07T22:39:54.505Z,0.88
2022-08-07T22:42:29.673Z,1.33
2022-08-07T22:44:59.878Z,0.75
2022-08-07T22:47:52.349Z,1.17
2022-08-07T22:50:47.209Z,0.90
2022-08-07T22:54:06.305Z,0.80
2022-08-07T22:56:51.356Z,0.80
2022-08-07T22:59:40.673Z,1.08
2022-08-07T23:02:35.984Z,0.93
2022-08-07T23:06:08.405Z,0.90
2022-08-07T23:08:23.870Z,0.85
2022-08-07T23:11:04.508Z,0.93
2022-08-07T23:14:15.329Z,0.60
2022-08-07T23:16:54.590Z,0.75
2022-08-07T23:19:59.839Z,0.88
2022-08-07T23:22:32.650Z,0.90
2022-08-07T23:25:29.439Z,1.35
2022-08-07T23:28:22.287Z,1.23
2022-08-07T23:31:43.018Z,1.30
2022-08-07T23:34:39.873Z,1.05
2022-08-07T23:37:22.619Z,0.90
2022-08-07T23:40:01.005Z,1.23
2022-08-07T23:42:55.437Z,0.98
2022-08-07T23:46:03.795Z,1.52
2022-08-07T23:49:01.429Z,0.93
2022-08-07T23:53:01.447Z,1.40
2022-08-07T23:54:46.539Z,1.20
2022-08-07T23:57:34.894Z,1.30
